sensor_id;sensor_type;location;lat;lon;timestamp;temperature;humidity
13856;DHT22;6998;53.608;9.958;2023-02-05T12:10:32;4.10;99.90
13856;DHT22;6998;53.608;9.958;2023-02-05T12:20:26;4.50;99.90
13856;DHT22;6998;53.608;9.958;2023-02-05T12:23:58;4.60;99.90
13856;DHT22;6998;53.608;9.958;2023-02-05T13:32:41;4.80;99.90
13856;DHT22;6998;53.608;9.958;2023-02-05T13:36:01;4.80;99.90
13856;DHT22;6998;53.608;9.958;2023-02-05T13:38:54;4.80;99.90
13856;DHT22;6998;53.608;9.958;2023-02-05T13:42:24;4.80;99.90
13856;DHT22;6998;53.608;9.958;2023-02-05T14:09:03;4.80;99.90
13856;DHT22;6998;53.608;9.958;2023-02-05T14:14:26;4.70;99.90
13856;DHT22;6998;53.608;9.958;2023-02-05T14:17:52;4.70;99.90
13856;DHT22;6998;53.608;9.958;2023-02-05T14:35:26;4.50;99.90
13856;DHT22;6998;53.608;9.958;2023-02-05T14:38:37;4.60;99.90
13856;DHT22;6998;53.608;9.958;2023-02-05T14:59:27;4.20;99.90
13856;DHT22;6998;53.608;9.958;2023-02-05T15:05:17;4.50;99.90
13856;DHT22;6998;53.608;9.958;2023-02-05T15:11:19;4.70;99.90
13856;DHT22;6998;53.608;9.958;2023-02-05T15:17:51;4.80;99.90
13856;DHT22;6998;53.608;9.958;2023-02-05T15:20:50;4.90;99.90
13856;DHT22;6998;53.608;9.958;2023-02-05T15:31:28;5.00;99.90
13856;DHT22;6998;53.608;9.958;2023-02-05T15:44:49;4.80;99.90
13856;DHT22;6998;53.608;9.958;2023-02-05T15:47:22;4.80;99.90
13856;DHT22;6998;53.608;9.958;2023-02-05T15:49:56;4.80;99.90
13856;DHT22;6998;53.608;9.958;2023-02-05T15:53:34;4.90;99.90
13856;DHT22;6998;53.608;9.958;2023-02-05T15:56:37;4.80;99.90
13856;DHT22;6998;53.608;9.958;2023-02-05T15:59:24;4.70;99.90
13856;DHT22;6998;53.608;9.958;2023-02-05T16:02:03;4.60;99.90
13856;DHT22;6998;53.608;9.958;2023-02-05T16:04:57;4.60;99.90
13856;DHT22;6998;53.608;9.958;2023-02-05T16:07:28;4.50;99.90
13856;DHT22;6998;53.608;9.958;2023-02-05T16:10:14;4.50;99.90
13856;DHT22;6998;53.608;9.958;2023-02-05T16:13:01;4.50;99.90
13856;DHT22;6998;53.608;9.958;2023-02-05T16:19:27;4.40;99.90
13856;DHT22;6998;53.608;9.958;2023-02-05T16:29:48;4.20;99.90
13856;DHT22;6998;53.608;9.958;2023-02-05T16:46:33;4.00;99.90
13856;DHT22;6998;53.608;9.958;2023-02-05T16:49:02;4.00;99.90
13856;DHT22;6998;53.608;9.958;2023-02-05T16:51:34;4.00;99.90
13856;DHT22;6998;53.608;9.958;2023-02-05T16:54:26;4.00;99.90
13856;DHT22;6998;53.608;9.958;2023-02-05T16:56:57;3.80;99.90
13856;DHT22;6998;53.608;9.958;2023-02-05T16:59:28;3.70;99.90
13856;DHT22;6998;53.608;9.958;2023-02-05T17:01:57;3.70;99.90
13856;DHT22;6998;53.608;9.958;2023-02-05T17:04:28;3.70;99.90
13856;DHT22;6998;53.608;9.958;2023-02-05T17:06:57;3.80;99.90
13856;DHT22;6998;53.608;9.958;2023-02-05T17:09:30;3.80;99.90
13856;DHT22;6998;53.608;9.958;2023-02-05T17:15:34;3.80;99.90
13856;DHT22;6998;53.608;9.958;2023-02-05T17:18:24;3.90;99.90
13856;DHT22;6998;53.608;9.958;2023-02-05T17:21:20;3.90;99.90
13856;DHT22;6998;53.608;9.958;2023-02-05T17:23:48;3.90;99.90
13856;DHT22;6998;53.608;9.958;2023-02-05T17:26:15;3.90;99.90
13856;DHT22;6998;53.608;9.958;2023-02-05T17:28:42;3.80;99.90
13856;DHT22;6998;53.608;9.958;2023-02-05T17:31:11;3.80;99.90
13856;DHT22;6998;53.608;9.958;2023-02-05T17:33:42;3.90;99.90
13856;DHT22;6998;53.608;9.958;2023-02-05T17:36:14;3.90;99.90
13856;DHT22;6998;53.608;9.958;2023-02-05T17:38:42;3.90;99.90
13856;DHT22;6998;53.608;9.958;2023-02-05T17:41:13;4.00;99.90
13856;DHT22;6998;53.608;9.958;2023-02-05T17:44:03;4.00;99.90
13856;DHT22;6998;53.608;9.958;2023-02-05T17:46:30;4.00;99.90
13856;DHT22;6998;53.608;9.958;2023-02-05T17:48:58;4.10;99.90
13856;DHT22;6998;53.608;9.958;2023-02-05T17:51:25;3.90;99.90
13856;DHT22;6998;53.608;9.958;2023-02-05T17:53:52;3.70;99.90
13856;DHT22;6998;53.608;9.958;2023-02-05T17:56:19;3.70;99.90
13856;DHT22;6998;53.608;9.958;2023-02-05T17:58:47;3.70;99.90
13856;DHT22;6998;53.608;9.958;2023-02-05T18:01:14;3.80;99.90
13856;DHT22;6998;53.608;9.958;2023-02-05T18:03:41;3.90;99.90
13856;DHT22;6998;53.608;9.958;2023-02-05T18:06:12;3.80;99.90
13856;DHT22;6998;53.608;9.958;2023-02-05T18:08:39;3.70;99.90
13856;DHT22;6998;53.608;9.958;2023-02-05T18:11:06;3.60;99.90
13856;DHT22;6998;53.608;9.958;2023-02-05T18:13:34;3.50;99.90
13856;DHT22;6998;53.608;9.958;2023-02-05T18:16:01;3.50;99.90
13856;DHT22;6998;53.608;9.958;2023-02-05T18:18:29;3.50;99.90
13856;DHT22;6998;53.608;9.958;2023-02-05T18:20:56;3.60;99.90
13856;DHT22;6998;53.608;9.958;2023-02-05T18:23:24;3.50;99.90
13856;DHT22;6998;53.608;9.958;2023-02-05T18:25:53;3.50;99.90
13856;DHT22;6998;53.608;9.958;2023-02-05T18:28:20;3.50;99.90
13856;DHT22;6998;53.608;9.958;2023-02-05T18:30:55;3.60;99.90
13856;DHT22;6998;53.608;9.958;2023-02-05T18:33:21;3.50;99.90
13856;DHT22;6998;53.608;9.958;2023-02-05T18:35:48;3.50;99.90
13856;DHT22;6998;53.608;9.958;2023-02-05T18:38:15;3.50;99.90
13856;DHT22;6998;53.608;9.958;2023-02-05T18:40:43;3.50;99.90
13856;DHT22;6998;53.608;9.958;2023-02-05T18:43:10;3.50;99.90
13856;DHT22;6998;53.608;9.958;2023-02-05T18:45:40;3.50;99.90
13856;DHT22;6998;53.608;9.958;2023-02-05T18:48:08;3.50;99.90
13856;DHT22;6998;53.608;9.958;2023-02-05T18:50:34;3.40;99.90
13856;DHT22;6998;53.608;9.958;2023-02-05T18:53:01;3.40;99.90
13856;DHT22;6998;53.608;9.958;2023-02-05T18:55:28;3.30;99.90
13856;DHT22;6998;53.608;9.958;2023-02-05T18:58:02;3.30;99.90
13856;DHT22;6998;53.608;9.958;2023-02-05T19:00:29;3.10;99.90
13856;DHT22;6998;53.608;9.958;2023-02-05T19:02:56;3.10;99.90
13856;DHT22;6998;53.608;9.958;2023-02-05T19:05:23;3.00;99.90
13856;DHT22;6998;53.608;9.958;2023-02-05T19:07:50;3.00;99.90
13856;DHT22;6998;53.608;9.958;2023-02-05T19:10:17;2.90;99.90
13856;DHT22;6998;53.608;9.958;2023-02-05T19:12:44;2.90;99.90
13856;DHT22;6998;53.608;9.958;2023-02-05T19:15:12;2.80;99.90
13856;DHT22;6998;53.608;9.958;2023-02-05T19:17:38;2.70;99.90
13856;DHT22;6998;53.608;9.958;2023-02-05T19:20:05;2.70;99.90
13856;DHT22;6998;53.608;9.958;2023-02-05T19:22:32;2.70;99.90
13856;DHT22;6998;53.608;9.958;2023-02-05T19:24:59;2.70;99.90
13856;DHT22;6998;53.608;9.958;2023-02-05T19:27:26;2.80;99.90
13856;DHT22;6998;53.608;9.958;2023-02-05T19:29:52;2.90;99.90
13856;DHT22;6998;53.608;9.958;2023-02-05T19:32:22;2.90;99.90
13856;DHT22;6998;53.608;9.958;2023-02-05T19:34:50;2.80;99.90
13856;DHT22;6998;53.608;9.958;2023-02-05T19:37:17;2.80;99.90
13856;DHT22;6998;53.608;9.958;2023-02-05T19:39:45;2.80;99.90
13856;DHT22;6998;53.608;9.958;2023-02-05T19:42:12;2.80;99.90
13856;DHT22;6998;53.608;9.958;2023-02-05T19:44:40;2.80;99.90
13856;DHT22;6998;53.608;9.958;2023-02-05T19:47:07;2.80;99.90
13856;DHT22;6998;53.608;9.958;2023-02-05T19:49:36;2.80;99.90
13856;DHT22;6998;53.608;9.958;2023-02-05T19:52:02;2.80;99.90
13856;DHT22;6998;53.608;9.958;2023-02-05T19:54:31;2.90;99.90
13856;DHT22;6998;53.608;9.958;2023-02-05T19:56:57;2.90;99.90
13856;DHT22;6998;53.608;9.958;2023-02-05T19:59:24;2.90;99.90
13856;DHT22;6998;53.608;9.958;2023-02-05T20:01:51;3.00;99.90
13856;DHT22;6998;53.608;9.958;2023-02-05T20:04:20;3.00;99.90
13856;DHT22;6998;53.608;9.958;2023-02-05T20:06:54;3.10;99.90
13856;DHT22;6998;53.608;9.958;2023-02-05T20:09:23;3.10;99.90
13856;DHT22;6998;53.608;9.958;2023-02-05T20:11:50;3.10;99.90
13856;DHT22;6998;53.608;9.958;2023-02-05T20:14:18;3.00;99.90
13856;DHT22;6998;53.608;9.958;2023-02-05T20:16:47;2.90;99.90
13856;DHT22;6998;53.608;9.958;2023-02-05T20:19:16;2.90;99.90
13856;DHT22;6998;53.608;9.958;2023-02-05T20:21:50;2.80;99.90
13856;DHT22;6998;53.608;9.958;2023-02-05T20:24:21;2.80;99.90
13856;DHT22;6998;53.608;9.958;2023-02-05T20:26:49;2.70;99.90
13856;DHT22;6998;53.608;9.958;2023-02-05T20:29:17;2.70;99.90
13856;DHT22;6998;53.608;9.958;2023-02-05T20:32:03;2.70;99.90
13856;DHT22;6998;53.608;9.958;2023-02-05T20:34:30;2.70;99.90
13856;DHT22;6998;53.608;9.958;2023-02-05T20:37:00;2.70;99.90
13856;DHT22;6998;53.608;9.958;2023-02-05T20:39:31;2.80;99.90
13856;DHT22;6998;53.608;9.958;2023-02-05T20:41:59;2.80;99.90
13856;DHT22;6998;53.608;9.958;2023-02-05T20:44:31;2.80;99.90
13856;DHT22;6998;53.608;9.958;2023-02-05T20:47:00;2.70;99.90
13856;DHT22;6998;53.608;9.958;2023-02-05T20:49:27;2.70;99.90
13856;DHT22;6998;53.608;9.958;2023-02-05T20:51:56;2.70;99.90
13856;DHT22;6998;53.608;9.958;2023-02-05T20:54:23;2.60;99.90
13856;DHT22;6998;53.608;9.958;2023-02-05T20:56:52;2.50;99.90
13856;DHT22;6998;53.608;9.958;2023-02-05T21:02:21;2.50;99.90
13856;DHT22;6998;53.608;9.958;2023-02-05T21:02:46;2.30;99.90
13856;DHT22;6998;53.608;9.958;2023-02-05T21:05:13;2.20;99.90
13856;DHT22;6998;53.608;9.958;2023-02-05T21:07:40;2.10;99.90
13856;DHT22;6998;53.608;9.958;2023-02-05T21:10:19;2.10;99.90
13856;DHT22;6998;53.608;9.958;2023-02-05T21:12:53;2.00;99.90
13856;DHT22;6998;53.608;9.958;2023-02-05T21:15:20;2.00;99.90
13856;DHT22;6998;53.608;9.958;2023-02-05T21:17:48;1.80;99.90
13856;DHT22;6998;53.608;9.958;2023-02-05T21:20:16;1.70;99.90
13856;DHT22;6998;53.608;9.958;2023-02-05T21:22:42;1.60;99.90
13856;DHT22;6998;53.608;9.958;2023-02-05T21:25:09;1.60;99.90
13856;DHT22;6998;53.608;9.958;2023-02-05T21:27:38;1.50;99.90
13856;DHT22;6998;53.608;9.958;2023-02-05T21:30:13;1.50;99.90
13856;DHT22;6998;53.608;9.958;2023-02-05T21:33:03;1.40;99.90
13856;DHT22;6998;53.608;9.958;2023-02-05T21:35:30;1.40;99.90
13856;DHT22;6998;53.608;9.958;2023-02-05T21:37:58;1.30;99.90
13856;DHT22;6998;53.608;9.958;2023-02-05T21:40:30;1.20;99.90
13856;DHT22;6998;53.608;9.958;2023-02-05T21:42:56;1.20;99.90
13856;DHT22;6998;53.608;9.958;2023-02-05T21:45:25;1.10;99.90
13856;DHT22;6998;53.608;9.958;2023-02-05T21:48:12;1.00;99.90
13856;DHT22;6998;53.608;9.958;2023-02-05T21:50:41;1.10;99.90
13856;DHT22;6998;53.608;9.958;2023-02-05T21:53:18;1.00;99.90
13856;DHT22;6998;53.608;9.958;2023-02-05T21:55:47;1.00;99.90
13856;DHT22;6998;53.608;9.958;2023-02-05T21:58:14;0.90;99.90
13856;DHT22;6998;53.608;9.958;2023-02-05T22:00:42;0.90;99.90
13856;DHT22;6998;53.608;9.958;2023-02-05T22:03:09;0.80;99.90
13856;DHT22;6998;53.608;9.958;2023-02-05T22:05:36;0.80;99.90
13856;DHT22;6998;53.608;9.958;2023-02-05T22:08:03;0.80;99.90
13856;DHT22;6998;53.608;9.958;2023-02-05T22:10:30;0.70;99.90
13856;DHT22;6998;53.608;9.958;2023-02-05T22:12:58;0.60;99.90
13856;DHT22;6998;53.608;9.958;2023-02-05T22:15:25;0.60;99.90
13856;DHT22;6998;53.608;9.958;2023-02-05T22:17:56;0.50;99.90
13856;DHT22;6998;53.608;9.958;2023-02-05T22:20:23;0.50;99.90
13856;DHT22;6998;53.608;9.958;2023-02-05T22:22:52;0.50;99.90
13856;DHT22;6998;53.608;9.958;2023-02-05T22:25:20;0.50;99.90
13856;DHT22;6998;53.608;9.958;2023-02-05T22:27:47;0.50;99.90
13856;DHT22;6998;53.608;9.958;2023-02-05T22:30:13;0.40;99.90
13856;DHT22;6998;53.608;9.958;2023-02-05T22:32:44;0.40;99.90
13856;DHT22;6998;53.608;9.958;2023-02-05T22:35:15;0.30;99.90
13856;DHT22;6998;53.608;9.958;2023-02-05T22:37:43;0.30;99.90
13856;DHT22;6998;53.608;9.958;2023-02-05T22:40:11;0.20;99.90
13856;DHT22;6998;53.608;9.958;2023-02-05T22:42:37;0.20;99.90
13856;DHT22;6998;53.608;9.958;2023-02-05T22:45:05;0.10;99.90
13856;DHT22;6998;53.608;9.958;2023-02-05T22:47:31;0.10;99.90
13856;DHT22;6998;53.608;9.958;2023-02-05T22:49:58;0.00;99.90
13856;DHT22;6998;53.608;9.958;2023-02-05T22:52:26;0.10;99.90
13856;DHT22;6998;53.608;9.958;2023-02-05T22:54:53;0.00;99.90
13856;DHT22;6998;53.608;9.958;2023-02-05T22:57:20;-0.10;99.90
13856;DHT22;6998;53.608;9.958;2023-02-05T22:59:47;0.00;99.90
13856;DHT22;6998;53.608;9.958;2023-02-05T23:02:14;0.00;99.90
13856;DHT22;6998;53.608;9.958;2023-02-05T23:04:40;-0.10;99.90
13856;DHT22;6998;53.608;9.958;2023-02-05T23:07:07;-0.20;99.90
13856;DHT22;6998;53.608;9.958;2023-02-05T23:09:36;-0.20;99.90
13856;DHT22;6998;53.608;9.958;2023-02-05T23:12:03;-0.30;99.90
13856;DHT22;6998;53.608;9.958;2023-02-05T23:14:31;-0.30;99.90
13856;DHT22;6998;53.608;9.958;2023-02-05T23:16:58;-0.30;99.90
13856;DHT22;6998;53.608;9.958;2023-02-05T23:19:25;-0.30;99.90
13856;DHT22;6998;53.608;9.958;2023-02-05T23:21:54;-0.30;99.90
13856;DHT22;6998;53.608;9.958;2023-02-05T23:24:21;-0.30;99.90
13856;DHT22;6998;53.608;9.958;2023-02-05T23:26:49;-0.30;99.90
13856;DHT22;6998;53.608;9.958;2023-02-05T23:29:18;-0.30;99.90
13856;DHT22;6998;53.608;9.958;2023-02-05T23:31:45;-0.30;99.90
13856;DHT22;6998;53.608;9.958;2023-02-05T23:34:12;-0.30;99.90
13856;DHT22;6998;53.608;9.958;2023-02-05T23:36:39;-0.40;99.90
13856;DHT22;6998;53.608;9.958;2023-02-05T23:39:06;-0.40;99.90
13856;DHT22;6998;53.608;9.958;2023-02-05T23:41:33;-0.40;99.90
13856;DHT22;6998;53.608;9.958;2023-02-05T23:44:10;-0.40;99.90
13856;DHT22;6998;53.608;9.958;2023-02-05T23:46:38;-0.40;99.90
13856;DHT22;6998;53.608;9.958;2023-02-05T23:49:05;-0.40;99.90
13856;DHT22;6998;53.608;9.958;2023-02-05T23:51:32;-0.50;99.90
13856;DHT22;6998;53.608;9.958;2023-02-05T23:53:59;-0.50;99.90
13856;DHT22;6998;53.608;9.958;2023-02-05T23:56:26;-0.50;99.90
13856;DHT22;6998;53.608;9.958;2023-02-05T23:58:54;-0.50;99.90
